Portada
METAR-TAF:

Aeropuertos :

Ezeiza, Argentina

Aeropuerto Internacional Ministro Pistarini

latitud: 34-49S, longitud: 058-32W, altitud: 20 m

Observación

El informe se hizo hace 36 minutos, a las 15:00 UTC
Viento 8 kt del este-noreste, variando entre norte y este-noreste
Temperatura 20°C
Humedad 43%
Presión 1020 hPa
Visibilidad 10 km o más
sin nubes por debajo de 1500 m y sin presencia de cumulonimbus.

METAR: SAEZ 261500Z 06008KT 360V070 CAVOK 20/07 Q1020

Hora: 12:36 (15:36 UTC)

Pronóstico

El informe se hizo hace 4 horas y 36 minutos, a las 11:00 UTC
Pronóstico válido del 26 a las 12 UTC al 27 a las 12 UTC
Viento 10 kt del norte-noreste
Visibilidad 10 km o más
sin nubes por debajo de 1500 m y sin presencia de cumulonimbus.

TAF: SAEZ 261100Z 2612/2712 03010KT CAVOK TX23/2619Z TN10/2710Z

METAR-TAF

Observaciones y pronósticos meteorológicos de más de 4000 aeropuertos (mensajes METAR y TAF).

Los puntos amarillos y rojos representan las estaciones disponibles.

Ponga el ratón en el punto deseado para ver el nombre de la estación.

Haga clic para ver las observaciones y los pronósticos meteorológicos.

Para cambiar el mapa : haga clic en los botones verdes con una cruz de color negro para hacer un zoom, en el botón verde con un guión para alejar o en las flechas verdes para mapas adyacentes.


METAR-TAF: